sensor_id;sensor_type;location;lat;lon;timestamp;P1;durP1;ratioP1;P2;durP2;ratioP2
53519;SDS011;39397;53.204;5.778;2023-07-13T00:02:14;6.28;;;1.45;;
53519;SDS011;39397;53.204;5.778;2023-07-13T00:04:40;4.93;;;1.10;;
53519;SDS011;39397;53.204;5.778;2023-07-13T00:07:07;9.35;;;1.75;;
53519;SDS011;39397;53.204;5.778;2023-07-13T00:09:33;6.47;;;1.60;;
53519;SDS011;39397;53.204;5.778;2023-07-13T00:11:59;9.57;;;2.10;;
53519;SDS011;39397;53.204;5.778;2023-07-13T00:14:26;4.40;;;1.20;;
53519;SDS011;39397;53.204;5.778;2023-07-13T00:16:53;10.02;;;1.77;;
53519;SDS011;39397;53.204;5.778;2023-07-13T00:19:19;8.20;;;1.70;;
53519;SDS011;39397;53.204;5.778;2023-07-13T00:21:45;9.55;;;1.77;;
53519;SDS011;39397;53.204;5.778;2023-07-13T00:24:11;6.43;;;1.50;;
53519;SDS011;39397;53.204;5.778;2023-07-13T00:26:39;8.90;;;1.20;;
53519;SDS011;39397;53.204;5.778;2023-07-13T00:29:05;7.68;;;1.20;;
53519;SDS011;39397;53.204;5.778;2023-07-13T00:31:33;5.60;;;1.15;;
53519;SDS011;39397;53.204;5.778;2023-07-13T00:33:59;4.43;;;0.90;;
53519;SDS011;39397;53.204;5.778;2023-07-13T00:36:25;3.50;;;0.93;;
53519;SDS011;39397;53.204;5.778;2023-07-13T00:38:51;5.65;;;1.30;;
53519;SDS011;39397;53.204;5.778;2023-07-13T00:41:18;6.57;;;0.80;;
53519;SDS011;39397;53.204;5.778;2023-07-13T00:43:43;5.63;;;0.85;;
53519;SDS011;39397;53.204;5.778;2023-07-13T00:46:11;5.70;;;1.10;;
53519;SDS011;39397;53.204;5.778;2023-07-13T00:48:40;5.72;;;1.10;;
53519;SDS011;39397;53.204;5.778;2023-07-13T00:51:07;3.17;;;0.95;;
53519;SDS011;39397;53.204;5.778;2023-07-13T00:53:33;6.28;;;1.17;;
53519;SDS011;39397;53.204;5.778;2023-07-13T00:56:00;3.40;;;0.77;;
53519;SDS011;39397;53.204;5.778;2023-07-13T00:58:26;4.40;;;0.88;;
53519;SDS011;39397;53.204;5.778;2023-07-13T01:00:53;4.43;;;1.02;;
53519;SDS011;39397;53.204;5.778;2023-07-13T01:03:18;3.22;;;0.85;;
53519;SDS011;39397;53.204;5.778;2023-07-13T01:05:46;4.47;;;0.80;;
53519;SDS011;39397;53.204;5.778;2023-07-13T01:08:13;4.00;;;0.82;;
53519;SDS011;39397;53.204;5.778;2023-07-13T01:10:39;4.65;;;0.90;;
53519;SDS011;39397;53.204;5.778;2023-07-13T01:13:09;3.33;;;0.85;;
53519;SDS011;39397;53.204;5.778;2023-07-13T01:15:45;3.38;;;0.90;;
53519;SDS011;39397;53.204;5.778;2023-07-13T01:18:17;4.93;;;0.73;;
53519;SDS011;39397;53.204;5.778;2023-07-13T01:23:27;5.72;;;1.30;;
53519;SDS011;39397;53.204;5.778;2023-07-13T01:25:54;3.25;;;0.80;;
53519;SDS011;39397;53.204;5.778;2023-07-13T01:28:20;4.32;;;0.93;;
53519;SDS011;39397;53.204;5.778;2023-07-13T01:30:46;4.25;;;0.98;;
53519;SDS011;39397;53.204;5.778;2023-07-13T01:33:13;3.15;;;0.80;;
53519;SDS011;39397;53.204;5.778;2023-07-13T01:35:41;4.68;;;1.00;;
53519;SDS011;39397;53.204;5.778;2023-07-13T01:38:08;4.57;;;1.27;;
53519;SDS011;39397;53.204;5.778;2023-07-13T01:40:35;8.45;;;1.20;;
53519;SDS011;39397;53.204;5.778;2023-07-13T01:43:02;5.70;;;1.10;;
53519;SDS011;39397;53.204;5.778;2023-07-13T01:45:28;5.00;;;1.30;;
53519;SDS011;39397;53.204;5.778;2023-07-13T01:47:54;4.28;;;0.93;;
53519;SDS011;39397;53.204;5.778;2023-07-13T01:50:20;8.68;;;1.40;;
53519;SDS011;39397;53.204;5.778;2023-07-13T01:52:45;4.68;;;1.15;;
53519;SDS011;39397;53.204;5.778;2023-07-13T01:55:11;6.15;;;1.17;;
53519;SDS011;39397;53.204;5.778;2023-07-13T01:57:37;5.28;;;1.58;;
53519;SDS011;39397;53.204;5.778;2023-07-13T02:00:03;5.32;;;1.30;;
53519;SDS011;39397;53.204;5.778;2023-07-13T02:02:30;6.00;;;1.30;;
53519;SDS011;39397;53.204;5.778;2023-07-13T02:04:56;5.60;;;1.30;;
53519;SDS011;39397;53.204;5.778;2023-07-13T02:07:22;7.55;;;1.30;;
53519;SDS011;39397;53.204;5.778;2023-07-13T02:09:48;4.75;;;1.30;;
53519;SDS011;39397;53.204;5.778;2023-07-13T02:12:13;4.90;;;1.40;;
53519;SDS011;39397;53.204;5.778;2023-07-13T02:14:39;5.13;;;1.15;;
53519;SDS011;39397;53.204;5.778;2023-07-13T02:17:05;7.82;;;2.22;;
53519;SDS011;39397;53.204;5.778;2023-07-13T02:19:31;7.10;;;1.65;;
53519;SDS011;39397;53.204;5.778;2023-07-13T02:21:57;6.65;;;1.50;;
53519;SDS011;39397;53.204;5.778;2023-07-13T02:24:22;8.95;;;1.60;;
53519;SDS011;39397;53.204;5.778;2023-07-13T02:26:48;7.53;;;1.58;;
53519;SDS011;39397;53.204;5.778;2023-07-13T02:29:14;7.60;;;1.83;;
53519;SDS011;39397;53.204;5.778;2023-07-13T02:31:40;9.45;;;1.75;;
53519;SDS011;39397;53.204;5.778;2023-07-13T02:34:05;8.10;;;1.60;;
53519;SDS011;39397;53.204;5.778;2023-07-13T02:36:31;9.20;;;1.90;;
53519;SDS011;39397;53.204;5.778;2023-07-13T02:39:00;10.18;;;1.90;;
53519;SDS011;39397;53.204;5.778;2023-07-13T02:41:27;8.93;;;2.08;;
53519;SDS011;39397;53.204;5.778;2023-07-13T02:43:53;10.43;;;2.88;;
53519;SDS011;39397;53.204;5.778;2023-07-13T02:46:21;8.55;;;1.75;;
53519;SDS011;39397;53.204;5.778;2023-07-13T02:48:49;11.60;;;2.03;;
53519;SDS011;39397;53.204;5.778;2023-07-13T02:51:14;7.13;;;1.77;;
53519;SDS011;39397;53.204;5.778;2023-07-13T02:53:40;8.55;;;2.88;;
53519;SDS011;39397;53.204;5.778;2023-07-13T02:56:06;8.82;;;1.90;;
53519;SDS011;39397;53.204;5.778;2023-07-13T02:58:32;11.73;;;2.10;;
53519;SDS011;39397;53.204;5.778;2023-07-13T03:01:05;12.18;;;2.35;;
53519;SDS011;39397;53.204;5.778;2023-07-13T03:03:35;11.70;;;2.55;;
53519;SDS011;39397;53.204;5.778;2023-07-13T03:06:01;10.20;;;2.10;;
53519;SDS011;39397;53.204;5.778;2023-07-13T03:08:28;10.32;;;2.50;;
53519;SDS011;39397;53.204;5.778;2023-07-13T03:10:58;8.93;;;2.33;;
53519;SDS011;39397;53.204;5.778;2023-07-13T03:13:29;10.32;;;2.25;;
53519;SDS011;39397;53.204;5.778;2023-07-13T03:15:54;11.68;;;2.58;;
53519;SDS011;39397;53.204;5.778;2023-07-13T03:18:20;14.38;;;2.65;;
53519;SDS011;39397;53.204;5.778;2023-07-13T03:20:46;11.07;;;2.35;;
53519;SDS011;39397;53.204;5.778;2023-07-13T03:23:11;10.70;;;2.53;;
53519;SDS011;39397;53.204;5.778;2023-07-13T03:25:37;14.20;;;2.97;;
53519;SDS011;39397;53.204;5.778;2023-07-13T03:28:03;12.93;;;2.60;;
53519;SDS011;39397;53.204;5.778;2023-07-13T03:30:30;13.50;;;3.13;;
53519;SDS011;39397;53.204;5.778;2023-07-13T03:32:56;11.38;;;2.92;;
53519;SDS011;39397;53.204;5.778;2023-07-13T03:35:22;11.73;;;2.75;;
53519;SDS011;39397;53.204;5.778;2023-07-13T03:37:47;9.82;;;2.75;;
53519;SDS011;39397;53.204;5.778;2023-07-13T03:40:13;9.30;;;2.70;;
53519;SDS011;39397;53.204;5.778;2023-07-13T03:42:39;8.80;;;2.85;;
53519;SDS011;39397;53.204;5.778;2023-07-13T03:45:05;10.32;;;2.80;;
53519;SDS011;39397;53.204;5.778;2023-07-13T03:47:31;10.68;;;3.00;;
53519;SDS011;39397;53.204;5.778;2023-07-13T03:49:56;12.57;;;3.10;;
53519;SDS011;39397;53.204;5.778;2023-07-13T03:52:22;13.68;;;3.67;;
53519;SDS011;39397;53.204;5.778;2023-07-13T03:54:48;8.18;;;2.38;;
53519;SDS011;39397;53.204;5.778;2023-07-13T03:57:14;14.80;;;2.92;;
53519;SDS011;39397;53.204;5.778;2023-07-13T03:59:39;13.05;;;3.00;;
53519;SDS011;39397;53.204;5.778;2023-07-13T04:02:05;9.25;;;2.88;;
53519;SDS011;39397;53.204;5.778;2023-07-13T04:04:31;9.75;;;3.10;;
53519;SDS011;39397;53.204;5.778;2023-07-13T04:06:57;12.88;;;2.88;;
53519;SDS011;39397;53.204;5.778;2023-07-13T04:09:23;12.10;;;3.13;;
53519;SDS011;39397;53.204;5.778;2023-07-13T04:11:49;11.50;;;2.70;;
53519;SDS011;39397;53.204;5.778;2023-07-13T04:14:15;12.15;;;2.97;;
53519;SDS011;39397;53.204;5.778;2023-07-13T04:16:42;11.52;;;3.47;;
53519;SDS011;39397;53.204;5.778;2023-07-13T04:19:08;9.98;;;2.47;;
53519;SDS011;39397;53.204;5.778;2023-07-13T04:21:35;11.35;;;2.70;;
53519;SDS011;39397;53.204;5.778;2023-07-13T04:24:01;13.57;;;3.00;;
53519;SDS011;39397;53.204;5.778;2023-07-13T04:26:28;12.13;;;3.33;;
53519;SDS011;39397;53.204;5.778;2023-07-13T04:28:54;11.20;;;2.70;;
53519;SDS011;39397;53.204;5.778;2023-07-13T04:31:21;9.20;;;3.00;;
53519;SDS011;39397;53.204;5.778;2023-07-13T04:33:47;12.32;;;2.63;;
53519;SDS011;39397;53.204;5.778;2023-07-13T04:36:15;13.32;;;3.50;;
53519;SDS011;39397;53.204;5.778;2023-07-13T04:38:41;11.90;;;3.80;;
53519;SDS011;39397;53.204;5.778;2023-07-13T04:41:07;12.88;;;2.92;;
53519;SDS011;39397;53.204;5.778;2023-07-13T04:43:33;14.13;;;3.30;;
53519;SDS011;39397;53.204;5.778;2023-07-13T04:46:07;7.97;;;2.45;;
53519;SDS011;39397;53.204;5.778;2023-07-13T04:48:35;11.80;;;3.38;;
53519;SDS011;39397;53.204;5.778;2023-07-13T04:51:01;8.95;;;2.70;;
53519;SDS011;39397;53.204;5.778;2023-07-13T04:53:27;9.70;;;2.80;;
53519;SDS011;39397;53.204;5.778;2023-07-13T04:55:53;10.95;;;2.55;;
53519;SDS011;39397;53.204;5.778;2023-07-13T04:58:19;9.65;;;2.80;;
53519;SDS011;39397;53.204;5.778;2023-07-13T05:00:46;9.45;;;3.58;;
53519;SDS011;39397;53.204;5.778;2023-07-13T05:03:12;12.50;;;3.05;;
53519;SDS011;39397;53.204;5.778;2023-07-13T05:05:38;7.95;;;2.55;;
53519;SDS011;39397;53.204;5.778;2023-07-13T05:08:04;10.73;;;2.80;;
53519;SDS011;39397;53.204;5.778;2023-07-13T05:10:29;8.77;;;2.70;;
53519;SDS011;39397;53.204;5.778;2023-07-13T05:12:55;12.25;;;3.75;;
53519;SDS011;39397;53.204;5.778;2023-07-13T05:15:21;13.02;;;2.83;;
53519;SDS011;39397;53.204;5.778;2023-07-13T05:17:48;10.85;;;2.88;;
53519;SDS011;39397;53.204;5.778;2023-07-13T05:20:14;7.03;;;2.40;;
53519;SDS011;39397;53.204;5.778;2023-07-13T05:22:40;11.82;;;2.85;;
53519;SDS011;39397;53.204;5.778;2023-07-13T05:25:06;7.95;;;2.47;;
53519;SDS011;39397;53.204;5.778;2023-07-13T05:27:32;8.85;;;2.00;;
53519;SDS011;39397;53.204;5.778;2023-07-13T05:29:59;6.70;;;2.20;;
53519;SDS011;39397;53.204;5.778;2023-07-13T05:32:25;7.90;;;1.90;;
53519;SDS011;39397;53.204;5.778;2023-07-13T05:34:51;9.63;;;2.08;;
53519;SDS011;39397;53.204;5.778;2023-07-13T05:37:18;6.38;;;1.83;;
53519;SDS011;39397;53.204;5.778;2023-07-13T05:39:44;5.05;;;1.52;;
53519;SDS011;39397;53.204;5.778;2023-07-13T05:42:10;10.27;;;1.70;;
53519;SDS011;39397;53.204;5.778;2023-07-13T05:44:35;9.63;;;2.03;;
53519;SDS011;39397;53.204;5.778;2023-07-13T05:47:01;10.68;;;2.20;;
53519;SDS011;39397;53.204;5.778;2023-07-13T05:49:27;4.97;;;1.27;;
53519;SDS011;39397;53.204;5.778;2023-07-13T05:51:55;7.25;;;2.00;;
53519;SDS011;39397;53.204;5.778;2023-07-13T05:54:21;5.65;;;1.60;;
53519;SDS011;39397;53.204;5.778;2023-07-13T05:56:47;5.95;;;1.50;;
53519;SDS011;39397;53.204;5.778;2023-07-13T05:59:13;4.47;;;1.55;;
53519;SDS011;39397;53.204;5.778;2023-07-13T06:01:39;6.63;;;1.23;;
53519;SDS011;39397;53.204;5.778;2023-07-13T06:04:04;3.40;;;1.10;;
53519;SDS011;39397;53.204;5.778;2023-07-13T06:06:30;4.90;;;1.33;;
53519;SDS011;39397;53.204;5.778;2023-07-13T06:08:56;6.30;;;1.20;;
53519;SDS011;39397;53.204;5.778;2023-07-13T06:11:23;5.07;;;1.08;;
53519;SDS011;39397;53.204;5.778;2023-07-13T06:13:50;8.43;;;1.45;;
53519;SDS011;39397;53.204;5.778;2023-07-13T06:16:16;4.32;;;1.08;;
53519;SDS011;39397;53.204;5.778;2023-07-13T06:18:43;7.05;;;1.10;;
53519;SDS011;39397;53.204;5.778;2023-07-13T06:21:09;6.45;;;1.33;;
53519;SDS011;39397;53.204;5.778;2023-07-13T06:23:37;4.43;;;1.10;;
53519;SDS011;39397;53.204;5.778;2023-07-13T06:26:03;5.60;;;1.30;;
53519;SDS011;39397;53.204;5.778;2023-07-13T06:28:30;6.40;;;1.13;;
53519;SDS011;39397;53.204;5.778;2023-07-13T06:30:57;6.47;;;1.10;;
53519;SDS011;39397;53.204;5.778;2023-07-13T06:33:23;2.75;;;1.00;;
53519;SDS011;39397;53.204;5.778;2023-07-13T06:35:49;10.20;;;1.85;;
53519;SDS011;39397;53.204;5.778;2023-07-13T06:38:15;6.05;;;1.42;;
53519;SDS011;39397;53.204;5.778;2023-07-13T06:40:41;7.18;;;1.33;;
53519;SDS011;39397;53.204;5.778;2023-07-13T06:43:07;4.97;;;1.17;;
53519;SDS011;39397;53.204;5.778;2023-07-13T06:45:35;4.53;;;0.98;;
53519;SDS011;39397;53.204;5.778;2023-07-13T06:48:06;5.03;;;1.20;;
53519;SDS011;39397;53.204;5.778;2023-07-13T06:50:33;6.28;;;1.58;;
53519;SDS011;39397;53.204;5.778;2023-07-13T06:52:59;2.45;;;1.05;;
53519;SDS011;39397;53.204;5.778;2023-07-13T06:55:24;3.65;;;1.02;;
53519;SDS011;39397;53.204;5.778;2023-07-13T06:57:51;2.67;;;0.75;;
53519;SDS011;39397;53.204;5.778;2023-07-13T07:00:17;5.28;;;1.17;;
53519;SDS011;39397;53.204;5.778;2023-07-13T07:02:43;3.95;;;1.10;;
53519;SDS011;39397;53.204;5.778;2023-07-13T07:05:09;5.07;;;0.98;;
53519;SDS011;39397;53.204;5.778;2023-07-13T07:07:35;4.10;;;1.15;;
53519;SDS011;39397;53.204;5.778;2023-07-13T07:10:00;3.70;;;1.00;;
53519;SDS011;39397;53.204;5.778;2023-07-13T07:12:26;6.60;;;1.30;;
53519;SDS011;39397;53.204;5.778;2023-07-13T07:14:52;8.52;;;1.13;;
53519;SDS011;39397;53.204;5.778;2023-07-13T07:17:18;4.75;;;1.10;;
53519;SDS011;39397;53.204;5.778;2023-07-13T07:19:44;4.78;;;1.27;;
53519;SDS011;39397;53.204;5.778;2023-07-13T07:22:09;7.97;;;1.20;;
53519;SDS011;39397;53.204;5.778;2023-07-13T07:24:35;4.13;;;1.30;;
53519;SDS011;39397;53.204;5.778;2023-07-13T07:27:01;4.00;;;0.93;;
53519;SDS011;39397;53.204;5.778;2023-07-13T07:29:26;4.78;;;1.25;;
53519;SDS011;39397;53.204;5.778;2023-07-13T07:31:53;5.43;;;1.17;;
53519;SDS011;39397;53.204;5.778;2023-07-13T07:34:19;4.82;;;1.30;;
53519;SDS011;39397;53.204;5.778;2023-07-13T07:36:44;4.70;;;1.27;;
53519;SDS011;39397;53.204;5.778;2023-07-13T07:39:10;3.20;;;0.90;;
53519;SDS011;39397;53.204;5.778;2023-07-13T07:41:36;5.70;;;0.95;;
53519;SDS011;39397;53.204;5.778;2023-07-13T07:44:02;5.13;;;1.63;;
53519;SDS011;39397;53.204;5.778;2023-07-13T07:46:29;6.03;;;1.05;;
53519;SDS011;39397;53.204;5.778;2023-07-13T07:48:55;9.82;;;1.20;;
53519;SDS011;39397;53.204;5.778;2023-07-13T07:51:21;5.40;;;1.40;;
53519;SDS011;39397;53.204;5.778;2023-07-13T07:53:47;5.65;;;1.00;;
53519;SDS011;39397;53.204;5.778;2023-07-13T07:56:13;6.15;;;1.58;;
53519;SDS011;39397;53.204;5.778;2023-07-13T07:58:41;4.03;;;1.08;;
53519;SDS011;39397;53.204;5.778;2023-07-13T08:01:07;6.40;;;1.20;;
53519;SDS011;39397;53.204;5.778;2023-07-13T08:03:34;8.05;;;1.30;;
53519;SDS011;39397;53.204;5.778;2023-07-13T08:05:59;5.10;;;1.75;;
53519;SDS011;39397;53.204;5.778;2023-07-13T08:08:26;4.45;;;1.20;;
53519;SDS011;39397;53.204;5.778;2023-07-13T08:10:52;6.65;;;1.30;;
53519;SDS011;39397;53.204;5.778;2023-07-13T08:13:18;4.50;;;1.25;;
53519;SDS011;39397;53.204;5.778;2023-07-13T08:15:44;7.80;;;1.63;;
53519;SDS011;39397;53.204;5.778;2023-07-13T08:18:11;4.40;;;1.10;;
53519;SDS011;39397;53.204;5.778;2023-07-13T08:20:39;4.63;;;1.20;;
53519;SDS011;39397;53.204;5.778;2023-07-13T08:23:06;6.38;;;1.30;;
53519;SDS011;39397;53.204;5.778;2023-07-13T08:25:34;4.65;;;1.17;;
53519;SDS011;39397;53.204;5.778;2023-07-13T08:28:00;6.38;;;1.48;;
53519;SDS011;39397;53.204;5.778;2023-07-13T08:30:26;5.82;;;1.20;;
53519;SDS011;39397;53.204;5.778;2023-07-13T08:32:53;5.30;;;1.00;;
53519;SDS011;39397;53.204;5.778;2023-07-13T08:35:18;3.97;;;1.00;;
53519;SDS011;39397;53.204;5.778;2023-07-13T08:37:44;5.35;;;1.15;;
53519;SDS011;39397;53.204;5.778;2023-07-13T08:40:10;5.15;;;1.20;;
53519;SDS011;39397;53.204;5.778;2023-07-13T08:48:26;4.38;;;1.17;;
53519;SDS011;39397;53.204;5.778;2023-07-13T08:54:00;7.65;;;1.83;;
53519;SDS011;39397;53.204;5.778;2023-07-13T08:56:29;3.88;;;1.27;;
53519;SDS011;39397;53.204;5.778;2023-07-13T08:59:09;5.38;;;1.10;;
53519;SDS011;39397;53.204;5.778;2023-07-13T09:04:58;5.00;;;1.20;;
53519;SDS011;39397;53.204;5.778;2023-07-13T09:07:55;6.40;;;1.48;;
53519;SDS011;39397;53.204;5.778;2023-07-13T09:10:29;6.35;;;1.08;;
53519;SDS011;39397;53.204;5.778;2023-07-13T09:16:00;2.60;;;0.80;;
53519;SDS011;39397;53.204;5.778;2023-07-13T09:23:35;4.63;;;0.88;;
53519;SDS011;39397;53.204;5.778;2023-07-13T09:26:13;4.57;;;0.80;;
53519;SDS011;39397;53.204;5.778;2023-07-13T09:28:43;4.90;;;1.10;;
53519;SDS011;39397;53.204;5.778;2023-07-13T09:31:13;3.17;;;0.80;;
53519;SDS011;39397;53.204;5.778;2023-07-13T09:33:51;3.25;;;0.60;;
53519;SDS011;39397;53.204;5.778;2023-07-13T09:36:22;3.65;;;0.80;;
53519;SDS011;39397;53.204;5.778;2023-07-13T09:38:49;3.28;;;0.63;;
53519;SDS011;39397;53.204;5.778;2023-07-13T09:44:18;3.55;;;0.70;;
53519;SDS011;39397;53.204;5.778;2023-07-13T09:46:54;4.40;;;1.05;;
53519;SDS011;39397;53.204;5.778;2023-07-13T09:49:35;9.68;;;0.90;;
53519;SDS011;39397;53.204;5.778;2023-07-13T09:52:03;5.72;;;0.88;;
53519;SDS011;39397;53.204;5.778;2023-07-13T09:54:33;3.50;;;0.80;;
53519;SDS011;39397;53.204;5.778;2023-07-13T09:57:01;2.50;;;0.70;;
53519;SDS011;39397;53.204;5.778;2023-07-13T09:59:29;5.45;;;1.10;;
53519;SDS011;39397;53.204;5.778;2023-07-13T10:01:58;6.15;;;1.10;;
53519;SDS011;39397;53.204;5.778;2023-07-13T10:04:32;5.70;;;0.95;;
53519;SDS011;39397;53.204;5.778;2023-07-13T10:07:09;5.82;;;1.00;;
53519;SDS011;39397;53.204;5.778;2023-07-13T10:09:38;3.78;;;1.17;;
53519;SDS011;39397;53.204;5.778;2023-07-13T10:12:04;4.57;;;1.20;;
53519;SDS011;39397;53.204;5.778;2023-07-13T10:14:42;3.65;;;1.33;;
53519;SDS011;39397;53.204;5.778;2023-07-13T10:17:10;13.65;;;1.35;;
53519;SDS011;39397;53.204;5.778;2023-07-13T10:19:39;5.55;;;1.10;;
53519;SDS011;39397;53.204;5.778;2023-07-13T10:22:16;3.42;;;1.17;;
53519;SDS011;39397;53.204;5.778;2023-07-13T10:25:13;4.30;;;1.05;;
53519;SDS011;39397;53.204;5.778;2023-07-13T10:27:47;5.00;;;1.30;;
53519;SDS011;39397;53.204;5.778;2023-07-13T10:32:50;4.37;;;1.03;;
53519;SDS011;39397;53.204;5.778;2023-07-13T10:35:18;6.03;;;1.02;;
53519;SDS011;39397;53.204;5.778;2023-07-13T10:37:55;8.27;;;1.60;;
53519;SDS011;39397;53.204;5.778;2023-07-13T10:40:41;4.07;;;1.40;;
53519;SDS011;39397;53.204;5.778;2023-07-13T10:43:23;6.63;;;1.20;;
53519;SDS011;39397;53.204;5.778;2023-07-13T10:45:57;9.07;;;1.27;;
53519;SDS011;39397;53.204;5.778;2023-07-13T10:48:24;8.38;;;1.33;;
53519;SDS011;39397;53.204;5.778;2023-07-13T10:50:52;13.85;;;1.40;;
53519;SDS011;39397;53.204;5.778;2023-07-13T10:55:56;4.35;;;1.20;;
53519;SDS011;39397;53.204;5.778;2023-07-13T11:01:12;5.22;;;1.77;;
53519;SDS011;39397;53.204;5.778;2023-07-13T11:08:38;5.28;;;1.30;;
53519;SDS011;39397;53.204;5.778;2023-07-13T11:21:31;9.80;;;1.45;;
53519;SDS011;39397;53.204;5.778;2023-07-13T11:26:52;9.63;;;1.30;;
53519;SDS011;39397;53.204;5.778;2023-07-13T11:29:24;9.10;;;1.60;;
53519;SDS011;39397;53.204;5.778;2023-07-13T11:31:58;5.80;;;1.33;;
53519;SDS011;39397;53.204;5.778;2023-07-13T11:34:30;8.80;;;1.40;;
53519;SDS011;39397;53.204;5.778;2023-07-13T11:37:00;5.65;;;1.83;;
53519;SDS011;39397;53.204;5.778;2023-07-13T11:39:30;7.00;;;1.45;;
53519;SDS011;39397;53.204;5.778;2023-07-13T11:42:00;6.80;;;1.33;;
53519;SDS011;39397;53.204;5.778;2023-07-13T11:44:29;9.80;;;1.77;;
53519;SDS011;39397;53.204;5.778;2023-07-13T11:46:59;10.82;;;1.95;;
53519;SDS011;39397;53.204;5.778;2023-07-13T11:49:38;4.55;;;1.17;;
53519;SDS011;39397;53.204;5.778;2023-07-13T11:52:11;6.53;;;1.90;;
53519;SDS011;39397;53.204;5.778;2023-07-13T11:54:50;5.65;;;1.30;;
53519;SDS011;39397;53.204;5.778;2023-07-13T11:57:24;4.35;;;1.20;;
53519;SDS011;39397;53.204;5.778;2023-07-13T11:59:56;6.63;;;1.30;;
53519;SDS011;39397;53.204;5.778;2023-07-13T12:02:36;7.30;;;1.45;;
53519;SDS011;39397;53.204;5.778;2023-07-13T12:05:04;8.40;;;1.60;;
53519;SDS011;39397;53.204;5.778;2023-07-13T12:07:32;10.05;;;1.98;;
53519;SDS011;39397;53.204;5.778;2023-07-13T12:10:02;6.20;;;2.30;;
53519;SDS011;39397;53.204;5.778;2023-07-13T12:12:36;7.68;;;2.20;;
53519;SDS011;39397;53.204;5.778;2023-07-13T12:15:06;11.00;;;1.80;;
53519;SDS011;39397;53.204;5.778;2023-07-13T12:17:33;8.55;;;2.35;;
53519;SDS011;39397;53.204;5.778;2023-07-13T12:20:00;7.32;;;1.35;;
53519;SDS011;39397;53.204;5.778;2023-07-13T12:22:33;6.15;;;2.00;;
53519;SDS011;39397;53.204;5.778;2023-07-13T12:24:59;6.10;;;2.13;;
53519;SDS011;39397;53.204;5.778;2023-07-13T12:27:26;9.75;;;1.85;;
53519;SDS011;39397;53.204;5.778;2023-07-13T12:30:00;6.53;;;2.00;;
53519;SDS011;39397;53.204;5.778;2023-07-13T12:32:28;6.25;;;1.92;;
53519;SDS011;39397;53.204;5.778;2023-07-13T12:34:56;6.00;;;1.90;;
53519;SDS011;39397;53.204;5.778;2023-07-13T12:37:33;11.18;;;2.17;;
53519;SDS011;39397;53.204;5.778;2023-07-13T12:39:59;7.65;;;1.98;;
53519;SDS011;39397;53.204;5.778;2023-07-13T12:42:26;8.48;;;2.13;;
53519;SDS011;39397;53.204;5.778;2023-07-13T12:47:41;6.40;;;2.03;;
53519;SDS011;39397;53.204;5.778;2023-07-13T12:50:15;6.80;;;2.15;;
53519;SDS011;39397;53.204;5.778;2023-07-13T12:52:49;6.65;;;2.10;;
53519;SDS011;39397;53.204;5.778;2023-07-13T12:55:17;8.45;;;2.03;;
53519;SDS011;39397;53.204;5.778;2023-07-13T12:57:53;8.40;;;2.83;;
53519;SDS011;39397;53.204;5.778;2023-07-13T13:02:53;7.38;;;2.03;;
53519;SDS011;39397;53.204;5.778;2023-07-13T13:05:20;6.05;;;1.98;;
53519;SDS011;39397;53.204;5.778;2023-07-13T13:07:49;9.38;;;2.65;;
53519;SDS011;39397;53.204;5.778;2023-07-13T13:10:15;7.50;;;2.00;;
53519;SDS011;39397;53.204;5.778;2023-07-13T13:12:41;8.02;;;2.40;;
53519;SDS011;39397;53.204;5.778;2023-07-13T13:15:10;8.95;;;2.00;;
53519;SDS011;39397;53.204;5.778;2023-07-13T13:17:39;8.00;;;2.17;;
53519;SDS011;39397;53.204;5.778;2023-07-13T13:20:13;7.13;;;1.70;;
53519;SDS011;39397;53.204;5.778;2023-07-13T13:22:41;10.77;;;2.17;;
53519;SDS011;39397;53.204;5.778;2023-07-13T13:25:09;6.93;;;1.80;;
53519;SDS011;39397;53.204;5.778;2023-07-13T13:27:35;8.57;;;2.20;;
53519;SDS011;39397;53.204;5.778;2023-07-13T13:30:02;6.13;;;1.88;;
53519;SDS011;39397;53.204;5.778;2023-07-13T13:32:28;7.07;;;2.13;;
53519;SDS011;39397;53.204;5.778;2023-07-13T13:34:53;7.18;;;1.92;;
53519;SDS011;39397;53.204;5.778;2023-07-13T13:37:22;7.70;;;1.63;;
53519;SDS011;39397;53.204;5.778;2023-07-13T13:39:50;6.78;;;1.80;;
53519;SDS011;39397;53.204;5.778;2023-07-13T13:42:20;7.28;;;1.73;;
53519;SDS011;39397;53.204;5.778;2023-07-13T13:44:47;7.32;;;1.80;;
53519;SDS011;39397;53.204;5.778;2023-07-13T13:47:19;7.10;;;1.98;;
53519;SDS011;39397;53.204;5.778;2023-07-13T13:49:54;5.28;;;1.55;;
53519;SDS011;39397;53.204;5.778;2023-07-13T13:52:20;9.07;;;2.03;;
53519;SDS011;39397;53.204;5.778;2023-07-13T13:54:45;6.20;;;2.20;;
53519;SDS011;39397;53.204;5.778;2023-07-13T13:57:11;8.85;;;2.08;;
53519;SDS011;39397;53.204;5.778;2023-07-13T13:59:37;6.75;;;2.03;;
53519;SDS011;39397;53.204;5.778;2023-07-13T14:02:26;8.18;;;1.90;;
53519;SDS011;39397;53.204;5.778;2023-07-13T14:04:53;6.75;;;2.28;;
53519;SDS011;39397;53.204;5.778;2023-07-13T14:07:22;5.13;;;1.85;;
53519;SDS011;39397;53.204;5.778;2023-07-13T14:09:47;10.38;;;2.10;;
53519;SDS011;39397;53.204;5.778;2023-07-13T14:12:13;9.52;;;2.33;;
53519;SDS011;39397;53.204;5.778;2023-07-13T14:14:39;8.10;;;2.40;;
53519;SDS011;39397;53.204;5.778;2023-07-13T14:17:09;7.18;;;1.73;;
53519;SDS011;39397;53.204;5.778;2023-07-13T14:19:47;7.07;;;1.90;;
53519;SDS011;39397;53.204;5.778;2023-07-13T14:22:16;8.43;;;2.20;;
53519;SDS011;39397;53.204;5.778;2023-07-13T14:24:42;7.22;;;1.98;;
53519;SDS011;39397;53.204;5.778;2023-07-13T14:27:09;6.90;;;1.98;;
53519;SDS011;39397;53.204;5.778;2023-07-13T14:29:37;8.27;;;2.30;;
53519;SDS011;39397;53.204;5.778;2023-07-13T14:32:02;8.73;;;1.83;;
53519;SDS011;39397;53.204;5.778;2023-07-13T14:34:30;5.53;;;2.00;;
53519;SDS011;39397;53.204;5.778;2023-07-13T14:36:55;6.55;;;1.67;;
53519;SDS011;39397;53.204;5.778;2023-07-13T14:39:24;6.68;;;2.03;;
53519;SDS011;39397;53.204;5.778;2023-07-13T14:41:51;8.38;;;2.08;;
53519;SDS011;39397;53.204;5.778;2023-07-13T14:44:20;6.82;;;2.08;;
53519;SDS011;39397;53.204;5.778;2023-07-13T14:46:48;6.75;;;2.00;;
53519;SDS011;39397;53.204;5.778;2023-07-13T14:49:31;7.03;;;2.10;;
53519;SDS011;39397;53.204;5.778;2023-07-13T14:52:14;6.95;;;1.92;;
53519;SDS011;39397;53.204;5.778;2023-07-13T14:54:42;8.48;;;2.60;;
53519;SDS011;39397;53.204;5.778;2023-07-13T14:57:16;7.63;;;2.13;;
53519;SDS011;39397;53.204;5.778;2023-07-13T14:59:46;7.85;;;2.33;;
53519;SDS011;39397;53.204;5.778;2023-07-13T15:02:24;7.07;;;1.90;;
53519;SDS011;39397;53.204;5.778;2023-07-13T15:05:05;7.47;;;2.05;;
53519;SDS011;39397;53.204;5.778;2023-07-13T15:07:42;7.43;;;2.00;;
53519;SDS011;39397;53.204;5.778;2023-07-13T15:10:21;6.57;;;1.80;;
53519;SDS011;39397;53.204;5.778;2023-07-13T15:12:56;7.28;;;2.28;;
53519;SDS011;39397;53.204;5.778;2023-07-13T15:15:57;9.18;;;2.47;;
53519;SDS011;39397;53.204;5.778;2023-07-13T15:18:23;7.88;;;1.90;;
53519;SDS011;39397;53.204;5.778;2023-07-13T15:20:52;5.95;;;1.77;;
53519;SDS011;39397;53.204;5.778;2023-07-13T15:23:21;7.88;;;2.28;;
53519;SDS011;39397;53.204;5.778;2023-07-13T15:25:48;12.40;;;3.10;;
53519;SDS011;39397;53.204;5.778;2023-07-13T15:28:14;10.95;;;2.90;;
53519;SDS011;39397;53.204;5.778;2023-07-13T15:30:41;7.65;;;2.00;;
53519;SDS011;39397;53.204;5.778;2023-07-13T15:33:30;10.85;;;2.50;;
53519;SDS011;39397;53.204;5.778;2023-07-13T15:35:55;7.50;;;2.65;;
53519;SDS011;39397;53.204;5.778;2023-07-13T15:38:25;9.48;;;2.47;;
53519;SDS011;39397;53.204;5.778;2023-07-13T15:40:54;8.68;;;2.15;;
53519;SDS011;39397;53.204;5.778;2023-07-13T15:43:21;8.52;;;2.15;;
53519;SDS011;39397;53.204;5.778;2023-07-13T15:45:48;7.85;;;2.30;;
53519;SDS011;39397;53.204;5.778;2023-07-13T15:50:47;7.97;;;2.50;;
53519;SDS011;39397;53.204;5.778;2023-07-13T15:53:15;8.65;;;2.55;;